sensor_id;sensor_type;location;lat;lon;timestamp;P1;durP1;ratioP1;P2;durP2;ratioP2
31786;SDS011;18356;52.380;9.820;2023-03-01T00:00:21;29.57;;;15.63;;
31786;SDS011;18356;52.380;9.820;2023-03-01T00:02:47;32.87;;;18.67;;
31786;SDS011;18356;52.380;9.820;2023-03-01T00:05:13;37.33;;;17.43;;
31786;SDS011;18356;52.380;9.820;2023-03-01T00:07:39;37.30;;;18.53;;
31786;SDS011;18356;52.380;9.820;2023-03-01T00:10:05;35.83;;;17.90;;
31786;SDS011;18356;52.380;9.820;2023-03-01T00:12:31;42.87;;;19.43;;
31786;SDS011;18356;52.380;9.820;2023-03-01T00:14:57;40.87;;;20.23;;
31786;SDS011;18356;52.380;9.820;2023-03-01T00:17:23;43.70;;;24.00;;
31786;SDS011;18356;52.380;9.820;2023-03-01T00:19:49;42.83;;;20.83;;
31786;SDS011;18356;52.380;9.820;2023-03-01T00:22:15;38.33;;;19.20;;
31786;SDS011;18356;52.380;9.820;2023-03-01T00:24:41;42.43;;;18.57;;
31786;SDS011;18356;52.380;9.820;2023-03-01T00:27:07;38.60;;;19.10;;
31786;SDS011;18356;52.380;9.820;2023-03-01T00:29:33;40.70;;;22.00;;
31786;SDS011;18356;52.380;9.820;2023-03-01T00:31:59;39.43;;;21.53;;
31786;SDS011;18356;52.380;9.820;2023-03-01T00:34:25;35.03;;;17.07;;
31786;SDS011;18356;52.380;9.820;2023-03-01T00:36:51;37.37;;;18.13;;
31786;SDS011;18356;52.380;9.820;2023-03-01T00:39:17;34.67;;;17.30;;
31786;SDS011;18356;52.380;9.820;2023-03-01T00:41:43;36.67;;;17.27;;
31786;SDS011;18356;52.380;9.820;2023-03-01T00:44:09;36.90;;;17.60;;
31786;SDS011;18356;52.380;9.820;2023-03-01T00:46:35;36.57;;;16.50;;
31786;SDS011;18356;52.380;9.820;2023-03-01T00:49:01;36.13;;;19.07;;
31786;SDS011;18356;52.380;9.820;2023-03-01T00:51:29;36.03;;;19.53;;
31786;SDS011;18356;52.380;9.820;2023-03-01T00:53:58;32.83;;;18.63;;
31786;SDS011;18356;52.380;9.820;2023-03-01T00:56:24;34.20;;;19.33;;
31786;SDS011;18356;52.380;9.820;2023-03-01T00:58:50;37.00;;;17.27;;
31786;SDS011;18356;52.380;9.820;2023-03-01T01:01:21;31.93;;;16.80;;
31786;SDS011;18356;52.380;9.820;2023-03-01T01:03:48;33.27;;;19.47;;
31786;SDS011;18356;52.380;9.820;2023-03-01T01:06:19;34.57;;;16.97;;
31786;SDS011;18356;52.380;9.820;2023-03-01T01:08:45;36.53;;;16.33;;
31786;SDS011;18356;52.380;9.820;2023-03-01T01:11:11;35.10;;;17.27;;
31786;SDS011;18356;52.380;9.820;2023-03-01T01:13:38;31.37;;;16.30;;
31786;SDS011;18356;52.380;9.820;2023-03-01T01:16:04;34.30;;;19.03;;
31786;SDS011;18356;52.380;9.820;2023-03-01T01:18:30;33.23;;;16.07;;
31786;SDS011;18356;52.380;9.820;2023-03-01T01:20:56;31.03;;;16.47;;
31786;SDS011;18356;52.380;9.820;2023-03-01T01:23:22;38.00;;;16.90;;
31786;SDS011;18356;52.380;9.820;2023-03-01T01:25:48;30.93;;;16.10;;
31786;SDS011;18356;52.380;9.820;2023-03-01T01:28:14;31.23;;;16.27;;
31786;SDS011;18356;52.380;9.820;2023-03-01T01:30:40;31.33;;;16.63;;
31786;SDS011;18356;52.380;9.820;2023-03-01T01:33:07;31.43;;;17.17;;
31786;SDS011;18356;52.380;9.820;2023-03-01T01:35:33;33.73;;;18.57;;
31786;SDS011;18356;52.380;9.820;2023-03-01T01:37:59;31.90;;;17.90;;
31786;SDS011;18356;52.380;9.820;2023-03-01T01:40:25;28.90;;;17.67;;
31786;SDS011;18356;52.380;9.820;2023-03-01T01:42:51;35.77;;;18.57;;
31786;SDS011;18356;52.380;9.820;2023-03-01T01:45:32;32.97;;;17.80;;
31786;SDS011;18356;52.380;9.820;2023-03-01T01:47:59;34.73;;;17.83;;
31786;SDS011;18356;52.380;9.820;2023-03-01T01:50:26;28.07;;;17.37;;
31786;SDS011;18356;52.380;9.820;2023-03-01T01:53:02;33.33;;;17.90;;
31786;SDS011;18356;52.380;9.820;2023-03-01T01:55:30;30.00;;;17.33;;
31786;SDS011;18356;52.380;9.820;2023-03-01T01:57:58;28.20;;;17.57;;
31786;SDS011;18356;52.380;9.820;2023-03-01T02:00:28;29.13;;;16.57;;
31786;SDS011;18356;52.380;9.820;2023-03-01T02:03:01;30.40;;;17.80;;
31786;SDS011;18356;52.380;9.820;2023-03-01T02:05:33;29.90;;;16.63;;
31786;SDS011;18356;52.380;9.820;2023-03-01T02:08:01;32.07;;;17.37;;
31786;SDS011;18356;52.380;9.820;2023-03-01T02:10:27;27.63;;;13.97;;
31786;SDS011;18356;52.380;9.820;2023-03-01T02:12:53;30.47;;;14.87;;
31786;SDS011;18356;52.380;9.820;2023-03-01T02:15:21;29.77;;;16.93;;
31786;SDS011;18356;52.380;9.820;2023-03-01T02:17:47;31.33;;;16.73;;
31786;SDS011;18356;52.380;9.820;2023-03-01T02:22:51;25.77;;;16.27;;
31786;SDS011;18356;52.380;9.820;2023-03-01T02:30:19;29.63;;;15.20;;
31786;SDS011;18356;52.380;9.820;2023-03-01T02:32:46;27.63;;;15.07;;
31786;SDS011;18356;52.380;9.820;2023-03-01T02:35:14;29.07;;;14.93;;
31786;SDS011;18356;52.380;9.820;2023-03-01T02:37:41;27.30;;;15.57;;
31786;SDS011;18356;52.380;9.820;2023-03-01T02:40:09;27.23;;;15.30;;
31786;SDS011;18356;52.380;9.820;2023-03-01T02:42:40;28.23;;;15.17;;
31786;SDS011;18356;52.380;9.820;2023-03-01T02:45:09;31.23;;;15.90;;
31786;SDS011;18356;52.380;9.820;2023-03-01T02:47:35;28.10;;;15.20;;
31786;SDS011;18356;52.380;9.820;2023-03-01T02:50:01;26.47;;;15.20;;
31786;SDS011;18356;52.380;9.820;2023-03-01T02:55:08;29.73;;;16.53;;
31786;SDS011;18356;52.380;9.820;2023-03-01T02:57:35;27.13;;;15.50;;
31786;SDS011;18356;52.380;9.820;2023-03-01T03:00:04;33.87;;;17.63;;
31786;SDS011;18356;52.380;9.820;2023-03-01T03:02:34;31.07;;;18.50;;
31786;SDS011;18356;52.380;9.820;2023-03-01T03:05:11;34.63;;;17.40;;
31786;SDS011;18356;52.380;9.820;2023-03-01T03:07:39;34.10;;;18.03;;
31786;SDS011;18356;52.380;9.820;2023-03-01T03:10:07;35.87;;;20.07;;
31786;SDS011;18356;52.380;9.820;2023-03-01T03:12:33;35.53;;;19.47;;
31786;SDS011;18356;52.380;9.820;2023-03-01T03:14:59;38.43;;;19.57;;
31786;SDS011;18356;52.380;9.820;2023-03-01T03:17:25;35.60;;;19.20;;
31786;SDS011;18356;52.380;9.820;2023-03-01T03:19:51;34.20;;;19.63;;
31786;SDS011;18356;52.380;9.820;2023-03-01T03:22:17;32.40;;;17.67;;
31786;SDS011;18356;52.380;9.820;2023-03-01T03:24:43;30.93;;;17.90;;
31786;SDS011;18356;52.380;9.820;2023-03-01T03:27:09;30.37;;;17.33;;
31786;SDS011;18356;52.380;9.820;2023-03-01T03:29:35;27.90;;;16.50;;
31786;SDS011;18356;52.380;9.820;2023-03-01T03:32:01;31.30;;;15.47;;
31786;SDS011;18356;52.380;9.820;2023-03-01T03:34:28;27.57;;;15.87;;
31786;SDS011;18356;52.380;9.820;2023-03-01T03:36:55;33.57;;;16.87;;
31786;SDS011;18356;52.380;9.820;2023-03-01T03:39:25;27.80;;;15.23;;
31786;SDS011;18356;52.380;9.820;2023-03-01T03:41:51;28.67;;;15.83;;
31786;SDS011;18356;52.380;9.820;2023-03-01T03:44:17;29.17;;;16.20;;
31786;SDS011;18356;52.380;9.820;2023-03-01T03:46:43;27.30;;;15.23;;
31786;SDS011;18356;52.380;9.820;2023-03-01T03:49:09;32.47;;;15.73;;
31786;SDS011;18356;52.380;9.820;2023-03-01T03:51:35;28.17;;;14.17;;
31786;SDS011;18356;52.380;9.820;2023-03-01T03:54:01;26.53;;;14.37;;
31786;SDS011;18356;52.380;9.820;2023-03-01T03:56:27;28.23;;;15.57;;
31786;SDS011;18356;52.380;9.820;2023-03-01T03:58:53;28.67;;;14.80;;
31786;SDS011;18356;52.380;9.820;2023-03-01T04:01:19;28.50;;;14.87;;
31786;SDS011;18356;52.380;9.820;2023-03-01T04:03:45;29.83;;;15.23;;
31786;SDS011;18356;52.380;9.820;2023-03-01T04:06:12;26.80;;;14.37;;
31786;SDS011;18356;52.380;9.820;2023-03-01T04:08:39;28.13;;;15.57;;
31786;SDS011;18356;52.380;9.820;2023-03-01T04:11:05;28.43;;;15.23;;
31786;SDS011;18356;52.380;9.820;2023-03-01T04:13:50;24.57;;;14.03;;
31786;SDS011;18356;52.380;9.820;2023-03-01T04:16:16;23.50;;;14.23;;
31786;SDS011;18356;52.380;9.820;2023-03-01T04:18:42;24.33;;;14.17;;
31786;SDS011;18356;52.380;9.820;2023-03-01T04:21:08;24.90;;;14.23;;
31786;SDS011;18356;52.380;9.820;2023-03-01T04:23:36;25.83;;;14.73;;
31786;SDS011;18356;52.380;9.820;2023-03-01T04:26:02;28.97;;;13.47;;
31786;SDS011;18356;52.380;9.820;2023-03-01T04:28:36;24.97;;;13.73;;
31786;SDS011;18356;52.380;9.820;2023-03-01T04:31:03;25.67;;;13.17;;
31786;SDS011;18356;52.380;9.820;2023-03-01T04:33:42;22.27;;;13.40;;
31786;SDS011;18356;52.380;9.820;2023-03-01T04:36:09;32.30;;;14.70;;
31786;SDS011;18356;52.380;9.820;2023-03-01T04:38:36;27.50;;;13.90;;
31786;SDS011;18356;52.380;9.820;2023-03-01T04:41:03;25.70;;;14.37;;
31786;SDS011;18356;52.380;9.820;2023-03-01T04:43:29;29.07;;;15.57;;
31786;SDS011;18356;52.380;9.820;2023-03-01T04:45:59;30.37;;;14.27;;
31786;SDS011;18356;52.380;9.820;2023-03-01T04:48:27;27.97;;;14.70;;
31786;SDS011;18356;52.380;9.820;2023-03-01T04:50:53;24.63;;;13.63;;
31786;SDS011;18356;52.380;9.820;2023-03-01T04:53:19;23.97;;;13.93;;
31786;SDS011;18356;52.380;9.820;2023-03-01T04:55:45;30.20;;;14.63;;
31786;SDS011;18356;52.380;9.820;2023-03-01T04:58:11;25.67;;;14.27;;
31786;SDS011;18356;52.380;9.820;2023-03-01T05:00:37;22.30;;;13.90;;
31786;SDS011;18356;52.380;9.820;2023-03-01T05:03:03;27.77;;;14.43;;
31786;SDS011;18356;52.380;9.820;2023-03-01T05:05:33;23.63;;;13.87;;
31786;SDS011;18356;52.380;9.820;2023-03-01T05:08:01;29.40;;;14.97;;
31786;SDS011;18356;52.380;9.820;2023-03-01T05:10:29;24.87;;;13.80;;
31786;SDS011;18356;52.380;9.820;2023-03-01T05:12:56;24.87;;;14.33;;
31786;SDS011;18356;52.380;9.820;2023-03-01T05:15:25;26.50;;;14.57;;
31786;SDS011;18356;52.380;9.820;2023-03-01T05:17:52;26.27;;;15.33;;
31786;SDS011;18356;52.380;9.820;2023-03-01T05:20:19;30.83;;;16.20;;
31786;SDS011;18356;52.380;9.820;2023-03-01T05:22:48;36.37;;;16.67;;
31786;SDS011;18356;52.380;9.820;2023-03-01T05:25:14;32.10;;;17.23;;
31786;SDS011;18356;52.380;9.820;2023-03-01T05:27:40;34.27;;;17.77;;
31786;SDS011;18356;52.380;9.820;2023-03-01T05:30:06;32.80;;;17.93;;
31786;SDS011;18356;52.380;9.820;2023-03-01T05:32:42;30.83;;;18.20;;
31786;SDS011;18356;52.380;9.820;2023-03-01T05:35:10;36.10;;;20.13;;
31786;SDS011;18356;52.380;9.820;2023-03-01T05:37:38;39.27;;;19.97;;
31786;SDS011;18356;52.380;9.820;2023-03-01T05:40:04;38.83;;;19.17;;
31786;SDS011;18356;52.380;9.820;2023-03-01T05:42:30;31.30;;;18.33;;
31786;SDS011;18356;52.380;9.820;2023-03-01T05:44:56;31.93;;;18.10;;
31786;SDS011;18356;52.380;9.820;2023-03-01T05:47:23;34.70;;;18.20;;
31786;SDS011;18356;52.380;9.820;2023-03-01T05:49:49;34.60;;;18.13;;
31786;SDS011;18356;52.380;9.820;2023-03-01T05:52:15;34.00;;;18.97;;
31786;SDS011;18356;52.380;9.820;2023-03-01T05:54:41;34.00;;;18.93;;
31786;SDS011;18356;52.380;9.820;2023-03-01T05:57:07;33.83;;;18.40;;
31786;SDS011;18356;52.380;9.820;2023-03-01T05:59:33;34.10;;;18.27;;
31786;SDS011;18356;52.380;9.820;2023-03-01T06:02:00;36.93;;;19.20;;
31786;SDS011;18356;52.380;9.820;2023-03-01T06:04:26;32.27;;;18.97;;
31786;SDS011;18356;52.380;9.820;2023-03-01T06:06:51;37.83;;;18.67;;
31786;SDS011;18356;52.380;9.820;2023-03-01T06:09:18;30.87;;;17.93;;
31786;SDS011;18356;52.380;9.820;2023-03-01T06:11:44;29.87;;;17.73;;
31786;SDS011;18356;52.380;9.820;2023-03-01T06:14:09;33.33;;;17.63;;
31786;SDS011;18356;52.380;9.820;2023-03-01T06:16:39;30.60;;;17.37;;
31786;SDS011;18356;52.380;9.820;2023-03-01T06:19:05;29.03;;;17.30;;
31786;SDS011;18356;52.380;9.820;2023-03-01T06:21:31;29.23;;;16.90;;
31786;SDS011;18356;52.380;9.820;2023-03-01T06:23:57;29.33;;;16.77;;
31786;SDS011;18356;52.380;9.820;2023-03-01T06:26:23;30.57;;;17.10;;
31786;SDS011;18356;52.380;9.820;2023-03-01T06:28:49;32.43;;;16.63;;
31786;SDS011;18356;52.380;9.820;2023-03-01T06:31:15;28.87;;;16.00;;
31786;SDS011;18356;52.380;9.820;2023-03-01T06:33:41;28.33;;;15.00;;
31786;SDS011;18356;52.380;9.820;2023-03-01T06:36:09;29.87;;;16.03;;
31786;SDS011;18356;52.380;9.820;2023-03-01T06:38:35;28.20;;;15.67;;
31786;SDS011;18356;52.380;9.820;2023-03-01T06:41:02;28.87;;;16.67;;
31786;SDS011;18356;52.380;9.820;2023-03-01T06:43:28;29.37;;;16.23;;
31786;SDS011;18356;52.380;9.820;2023-03-01T06:45:54;29.40;;;17.13;;
31786;SDS011;18356;52.380;9.820;2023-03-01T06:48:20;37.00;;;17.40;;
31786;SDS011;18356;52.380;9.820;2023-03-01T06:50:46;29.37;;;15.93;;
31786;SDS011;18356;52.380;9.820;2023-03-01T06:53:12;32.43;;;16.20;;
31786;SDS011;18356;52.380;9.820;2023-03-01T06:55:38;32.20;;;14.70;;
31786;SDS011;18356;52.380;9.820;2023-03-01T06:58:04;29.90;;;15.53;;
31786;SDS011;18356;52.380;9.820;2023-03-01T07:00:30;31.03;;;14.77;;
31786;SDS011;18356;52.380;9.820;2023-03-01T07:02:57;29.77;;;15.00;;
31786;SDS011;18356;52.380;9.820;2023-03-01T07:05:23;29.00;;;16.50;;
31786;SDS011;18356;52.380;9.820;2023-03-01T07:07:49;29.70;;;15.87;;
31786;SDS011;18356;52.380;9.820;2023-03-01T07:10:15;31.23;;;16.40;;
31786;SDS011;18356;52.380;9.820;2023-03-01T07:12:42;29.90;;;13.57;;
31786;SDS011;18356;52.380;9.820;2023-03-01T07:15:08;28.50;;;13.10;;
31786;SDS011;18356;52.380;9.820;2023-03-01T07:17:35;33.70;;;14.00;;
31786;SDS011;18356;52.380;9.820;2023-03-01T07:20:01;27.93;;;14.30;;
31786;SDS011;18356;52.380;9.820;2023-03-01T07:22:27;28.33;;;15.53;;
31786;SDS011;18356;52.380;9.820;2023-03-01T07:24:53;30.57;;;15.77;;
31786;SDS011;18356;52.380;9.820;2023-03-01T07:27:19;29.60;;;14.77;;
31786;SDS011;18356;52.380;9.820;2023-03-01T07:29:45;40.17;;;15.90;;
31786;SDS011;18356;52.380;9.820;2023-03-01T07:32:11;33.80;;;16.03;;
31786;SDS011;18356;52.380;9.820;2023-03-01T07:34:37;33.23;;;15.17;;
31786;SDS011;18356;52.380;9.820;2023-03-01T07:37:03;30.40;;;15.50;;
31786;SDS011;18356;52.380;9.820;2023-03-01T07:39:29;29.87;;;14.70;;
31786;SDS011;18356;52.380;9.820;2023-03-01T07:41:55;28.27;;;14.60;;
31786;SDS011;18356;52.380;9.820;2023-03-01T07:44:21;35.07;;;15.17;;
31786;SDS011;18356;52.380;9.820;2023-03-01T07:46:47;34.57;;;14.07;;
31786;SDS011;18356;52.380;9.820;2023-03-01T07:49:13;37.10;;;14.07;;
31786;SDS011;18356;52.380;9.820;2023-03-01T07:51:39;30.33;;;14.33;;
31786;SDS011;18356;52.380;9.820;2023-03-01T07:54:05;26.33;;;13.00;;
31786;SDS011;18356;52.380;9.820;2023-03-01T07:56:31;28.13;;;13.03;;
31786;SDS011;18356;52.380;9.820;2023-03-01T07:58:58;27.60;;;14.03;;
31786;SDS011;18356;52.380;9.820;2023-03-01T08:01:24;31.53;;;12.63;;
31786;SDS011;18356;52.380;9.820;2023-03-01T08:03:50;33.97;;;13.40;;
31786;SDS011;18356;52.380;9.820;2023-03-01T08:06:17;25.07;;;13.33;;
31786;SDS011;18356;52.380;9.820;2023-03-01T08:08:43;31.17;;;13.53;;
31786;SDS011;18356;52.380;9.820;2023-03-01T08:11:13;33.67;;;13.57;;
31786;SDS011;18356;52.380;9.820;2023-03-01T08:13:39;34.07;;;13.57;;
31786;SDS011;18356;52.380;9.820;2023-03-01T08:16:14;36.43;;;13.60;;
31786;SDS011;18356;52.380;9.820;2023-03-01T08:18:41;52.17;;;13.90;;
31786;SDS011;18356;52.380;9.820;2023-03-01T08:21:08;43.17;;;13.27;;
31786;SDS011;18356;52.380;9.820;2023-03-01T08:23:34;35.87;;;13.10;;
31786;SDS011;18356;52.380;9.820;2023-03-01T08:26:04;37.40;;;11.60;;
31786;SDS011;18356;52.380;9.820;2023-03-01T08:28:31;24.63;;;11.13;;
31786;SDS011;18356;52.380;9.820;2023-03-01T08:30:57;27.10;;;11.37;;
31786;SDS011;18356;52.380;9.820;2023-03-01T08:33:23;30.53;;;10.77;;
31786;SDS011;18356;52.380;9.820;2023-03-01T08:35:49;21.20;;;9.93;;
31786;SDS011;18356;52.380;9.820;2023-03-01T08:38:15;28.67;;;10.93;;
31786;SDS011;18356;52.380;9.820;2023-03-01T08:40:41;27.67;;;10.53;;
31786;SDS011;18356;52.380;9.820;2023-03-01T08:43:07;22.43;;;9.90;;
31786;SDS011;18356;52.380;9.820;2023-03-01T08:45:33;21.77;;;9.13;;
31786;SDS011;18356;52.380;9.820;2023-03-01T08:47:59;20.80;;;8.77;;
31786;SDS011;18356;52.380;9.820;2023-03-01T08:50:25;25.70;;;9.03;;
31786;SDS011;18356;52.380;9.820;2023-03-01T08:52:51;24.03;;;9.10;;
31786;SDS011;18356;52.380;9.820;2023-03-01T08:55:17;23.20;;;9.07;;
31786;SDS011;18356;52.380;9.820;2023-03-01T08:57:43;17.57;;;8.03;;
31786;SDS011;18356;52.380;9.820;2023-03-01T09:00:09;21.93;;;9.43;;
31786;SDS011;18356;52.380;9.820;2023-03-01T09:02:36;21.07;;;8.47;;
31786;SDS011;18356;52.380;9.820;2023-03-01T09:05:03;29.60;;;8.60;;
31786;SDS011;18356;52.380;9.820;2023-03-01T09:07:29;17.20;;;8.80;;
31786;SDS011;18356;52.380;9.820;2023-03-01T09:09:55;21.03;;;9.23;;
31786;SDS011;18356;52.380;9.820;2023-03-01T09:12:21;21.07;;;8.90;;
31786;SDS011;18356;52.380;9.820;2023-03-01T09:14:49;15.03;;;8.20;;
31786;SDS011;18356;52.380;9.820;2023-03-01T09:17:15;15.03;;;7.67;;
31786;SDS011;18356;52.380;9.820;2023-03-01T09:19:41;19.57;;;7.93;;
31786;SDS011;18356;52.380;9.820;2023-03-01T09:22:07;21.77;;;7.73;;
31786;SDS011;18356;52.380;9.820;2023-03-01T09:24:33;15.63;;;7.37;;
31786;SDS011;18356;52.380;9.820;2023-03-01T09:26:59;15.17;;;7.27;;
31786;SDS011;18356;52.380;9.820;2023-03-01T09:29:26;14.80;;;6.37;;
31786;SDS011;18356;52.380;9.820;2023-03-01T09:31:52;18.50;;;7.30;;
31786;SDS011;18356;52.380;9.820;2023-03-01T09:34:20;12.37;;;6.70;;
31786;SDS011;18356;52.380;9.820;2023-03-01T09:36:48;15.80;;;6.57;;
31786;SDS011;18356;52.380;9.820;2023-03-01T09:39:14;15.13;;;6.13;;
31786;SDS011;18356;52.380;9.820;2023-03-01T09:46:39;24.10;;;7.00;;
31786;SDS011;18356;52.380;9.820;2023-03-01T09:49:17;13.87;;;6.43;;
31786;SDS011;18356;52.380;9.820;2023-03-01T09:51:47;19.80;;;7.33;;
31786;SDS011;18356;52.380;9.820;2023-03-01T09:54:16;27.17;;;7.90;;
31786;SDS011;18356;52.380;9.820;2023-03-01T09:59:32;15.80;;;7.33;;
31786;SDS011;18356;52.380;9.820;2023-03-01T10:02:14;16.03;;;7.70;;
31786;SDS011;18356;52.380;9.820;2023-03-01T10:04:45;16.40;;;7.00;;
31786;SDS011;18356;52.380;9.820;2023-03-01T10:09:46;16.27;;;7.23;;
31786;SDS011;18356;52.380;9.820;2023-03-01T10:12:20;16.17;;;6.70;;
31786;SDS011;18356;52.380;9.820;2023-03-01T10:14:51;14.70;;;6.63;;
31786;SDS011;18356;52.380;9.820;2023-03-01T10:17:27;13.83;;;6.70;;
31786;SDS011;18356;52.380;9.820;2023-03-01T10:19:57;12.97;;;6.03;;
31786;SDS011;18356;52.380;9.820;2023-03-01T10:22:31;12.67;;;6.27;;
31786;SDS011;18356;52.380;9.820;2023-03-01T10:24:58;10.70;;;4.47;;
31786;SDS011;18356;52.380;9.820;2023-03-01T10:27:26;10.67;;;5.60;;
31786;SDS011;18356;52.380;9.820;2023-03-01T10:32:19;12.97;;;5.40;;
31786;SDS011;18356;52.380;9.820;2023-03-01T10:34:47;11.37;;;5.47;;
31786;SDS011;18356;52.380;9.820;2023-03-01T10:37:13;13.10;;;5.30;;
31786;SDS011;18356;52.380;9.820;2023-03-01T10:42:28;10.87;;;4.90;;
31786;SDS011;18356;52.380;9.820;2023-03-01T10:44:55;12.67;;;5.60;;
31786;SDS011;18356;52.380;9.820;2023-03-01T10:47:21;12.87;;;5.80;;
31786;SDS011;18356;52.380;9.820;2023-03-01T10:54:59;16.90;;;5.90;;
31786;SDS011;18356;52.380;9.820;2023-03-01T11:00:13;11.43;;;5.63;;
31786;SDS011;18356;52.380;9.820;2023-03-01T11:02:41;10.60;;;4.97;;
31786;SDS011;18356;52.380;9.820;2023-03-01T11:07:54;10.53;;;5.10;;
31786;SDS011;18356;52.380;9.820;2023-03-01T11:10:28;9.37;;;4.90;;
31786;SDS011;18356;52.380;9.820;2023-03-01T11:13:14;11.23;;;5.10;;
31786;SDS011;18356;52.380;9.820;2023-03-01T11:15:41;9.07;;;5.10;;
31786;SDS011;18356;52.380;9.820;2023-03-01T11:18:20;10.67;;;5.50;;
31786;SDS011;18356;52.380;9.820;2023-03-01T11:20:46;13.10;;;5.43;;
31786;SDS011;18356;52.380;9.820;2023-03-01T11:23:13;8.97;;;4.83;;
31786;SDS011;18356;52.380;9.820;2023-03-01T11:25:47;8.67;;;4.57;;
31786;SDS011;18356;52.380;9.820;2023-03-01T11:28:16;9.67;;;4.97;;
31786;SDS011;18356;52.380;9.820;2023-03-01T11:30:49;10.33;;;5.40;;
31786;SDS011;18356;52.380;9.820;2023-03-01T11:35:53;9.37;;;4.97;;
31786;SDS011;18356;52.380;9.820;2023-03-01T11:38:23;7.43;;;4.33;;
31786;SDS011;18356;52.380;9.820;2023-03-01T11:40:54;10.37;;;4.70;;
31786;SDS011;18356;52.380;9.820;2023-03-01T11:51:01;8.17;;;4.77;;
31786;SDS011;18356;52.380;9.820;2023-03-01T11:56:03;7.27;;;4.17;;
31786;SDS011;18356;52.380;9.820;2023-03-01T12:03:46;8.80;;;4.47;;
31786;SDS011;18356;52.380;9.820;2023-03-01T12:08:55;8.17;;;4.50;;
31786;SDS011;18356;52.380;9.820;2023-03-01T12:19:31;9.37;;;5.27;;
31786;SDS011;18356;52.380;9.820;2023-03-01T12:29:53;9.73;;;5.20;;
31786;SDS011;18356;52.380;9.820;2023-03-01T12:37:21;10.13;;;5.10;;
31786;SDS011;18356;52.380;9.820;2023-03-01T12:40:03;8.37;;;4.80;;
31786;SDS011;18356;52.380;9.820;2023-03-01T12:50:23;8.83;;;4.80;;
31786;SDS011;18356;52.380;9.820;2023-03-01T12:52:56;12.40;;;5.33;;
31786;SDS011;18356;52.380;9.820;2023-03-01T12:57:52;12.03;;;4.80;;
31786;SDS011;18356;52.380;9.820;2023-03-01T13:00:31;9.27;;;5.23;;
31786;SDS011;18356;52.380;9.820;2023-03-01T13:03:00;9.53;;;4.80;;
31786;SDS011;18356;52.380;9.820;2023-03-01T13:17:48;8.30;;;4.77;;
31786;SDS011;18356;52.380;9.820;2023-03-01T13:20:15;11.40;;;5.83;;
31786;SDS011;18356;52.380;9.820;2023-03-01T13:22:41;12.00;;;6.43;;
31786;SDS011;18356;52.380;9.820;2023-03-01T13:25:14;11.23;;;5.83;;
31786;SDS011;18356;52.380;9.820;2023-03-01T13:27:41;12.97;;;6.13;;
31786;SDS011;18356;52.380;9.820;2023-03-01T13:30:38;12.93;;;6.80;;
31786;SDS011;18356;52.380;9.820;2023-03-01T13:32:53;10.77;;;5.70;;
31786;SDS011;18356;52.380;9.820;2023-03-01T13:35:42;10.83;;;5.97;;
31786;SDS011;18356;52.380;9.820;2023-03-01T13:38:36;12.80;;;5.83;;
31786;SDS011;18356;52.380;9.820;2023-03-01T13:43:29;9.80;;;6.13;;
31786;SDS011;18356;52.380;9.820;2023-03-01T13:46:08;12.47;;;5.70;;
31786;SDS011;18356;52.380;9.820;2023-03-01T13:48:42;9.47;;;5.50;;
31786;SDS011;18356;52.380;9.820;2023-03-01T13:51:14;9.53;;;5.20;;
31786;SDS011;18356;52.380;9.820;2023-03-01T13:53:42;10.23;;;5.20;;
31786;SDS011;18356;52.380;9.820;2023-03-01T13:56:12;8.63;;;5.17;;
31786;SDS011;18356;52.380;9.820;2023-03-01T13:58:46;8.10;;;4.87;;
31786;SDS011;18356;52.380;9.820;2023-03-01T14:01:20;8.23;;;4.87;;
31786;SDS011;18356;52.380;9.820;2023-03-01T14:03:46;8.80;;;5.37;;
31786;SDS011;18356;52.380;9.820;2023-03-01T14:06:13;8.73;;;4.60;;
31786;SDS011;18356;52.380;9.820;2023-03-01T14:08:42;11.10;;;4.60;;
31786;SDS011;18356;52.380;9.820;2023-03-01T14:13:38;10.00;;;4.10;;
31786;SDS011;18356;52.380;9.820;2023-03-01T14:16:12;8.20;;;4.30;;
31786;SDS011;18356;52.380;9.820;2023-03-01T14:21:27;9.33;;;3.70;;
31786;SDS011;18356;52.380;9.820;2023-03-01T14:23:55;10.50;;;4.20;;
31786;SDS011;18356;52.380;9.820;2023-03-01T14:26:21;6.33;;;3.50;;
31786;SDS011;18356;52.380;9.820;2023-03-01T14:28:48;11.40;;;4.20;;
31786;SDS011;18356;52.380;9.820;2023-03-01T14:33:59;8.23;;;4.10;;
31786;SDS011;18356;52.380;9.820;2023-03-01T14:36:29;7.30;;;3.47;;
31786;SDS011;18356;52.380;9.820;2023-03-01T14:38:56;6.20;;;2.90;;
31786;SDS011;18356;52.380;9.820;2023-03-01T14:41:31;9.40;;;3.33;;
31786;SDS011;18356;52.380;9.820;2023-03-01T14:44:02;9.37;;;3.70;;
31786;SDS011;18356;52.380;9.820;2023-03-01T14:46:30;9.17;;;3.57;;
31786;SDS011;18356;52.380;9.820;2023-03-01T14:49:01;6.73;;;2.93;;
31786;SDS011;18356;52.380;9.820;2023-03-01T14:51:27;7.17;;;3.17;;
31786;SDS011;18356;52.380;9.820;2023-03-01T14:53:53;5.37;;;3.07;;
31786;SDS011;18356;52.380;9.820;2023-03-01T14:56:20;7.90;;;3.20;;
31786;SDS011;18356;52.380;9.820;2023-03-01T14:58:46;19.23;;;4.70;;
31786;SDS011;18356;52.380;9.820;2023-03-01T15:01:16;8.13;;;3.00;;
31786;SDS011;18356;52.380;9.820;2023-03-01T15:03:43;7.43;;;3.30;;
31786;SDS011;18356;52.380;9.820;2023-03-01T15:06:11;8.97;;;3.57;;
31786;SDS011;18356;52.380;9.820;2023-03-01T15:08:41;9.30;;;3.70;;
31786;SDS011;18356;52.380;9.820;2023-03-01T15:13:40;8.00;;;3.33;;
31786;SDS011;18356;52.380;9.820;2023-03-01T15:16:13;47.20;;;8.00;;
31786;SDS011;18356;52.380;9.820;2023-03-01T15:18:44;7.90;;;4.00;;
31786;SDS011;18356;52.380;9.820;2023-03-01T15:21:18;10.33;;;4.20;;
31786;SDS011;18356;52.380;9.820;2023-03-01T15:23:48;10.23;;;3.47;;
31786;SDS011;18356;52.380;9.820;2023-03-01T15:26:24;7.83;;;3.00;;
31786;SDS011;18356;52.380;9.820;2023-03-01T15:28:51;7.30;;;3.47;;
31786;SDS011;18356;52.380;9.820;2023-03-01T15:31:19;6.27;;;3.00;;
31786;SDS011;18356;52.380;9.820;2023-03-01T15:33:46;10.07;;;3.43;;
31786;SDS011;18356;52.380;9.820;2023-03-01T15:38:57;7.33;;;3.53;;
31786;SDS011;18356;52.380;9.820;2023-03-01T15:43:51;8.73;;;3.40;;
31786;SDS011;18356;52.380;9.820;2023-03-01T15:48:54;7.63;;;3.73;;
31786;SDS011;18356;52.380;9.820;2023-03-01T15:51:28;7.80;;;3.63;;
31786;SDS011;18356;52.380;9.820;2023-03-01T15:53:55;15.67;;;3.90;;
31786;SDS011;18356;52.380;9.820;2023-03-01T15:56:23;6.40;;;3.60;;
31786;SDS011;18356;52.380;9.820;2023-03-01T15:58:49;6.63;;;3.53;;
31786;SDS011;18356;52.380;9.820;2023-03-01T16:01:15;9.17;;;3.73;;
31786;SDS011;18356;52.380;9.820;2023-03-01T16:03:42;11.53;;;3.10;;
31786;SDS011;18356;52.380;9.820;2023-03-01T16:06:09;9.47;;;3.47;;
31786;SDS011;18356;52.380;9.820;2023-03-01T16:08:35;9.03;;;3.43;;
31786;SDS011;18356;52.380;9.820;2023-03-01T16:11:02;13.10;;;4.20;;
31786;SDS011;18356;52.380;9.820;2023-03-01T16:13:30;8.23;;;3.20;;
31786;SDS011;18356;52.380;9.820;2023-03-01T16:15:56;7.47;;;3.30;;
31786;SDS011;18356;52.380;9.820;2023-03-01T16:18:22;9.53;;;3.87;;
31786;SDS011;18356;52.380;9.820;2023-03-01T16:20:48;6.47;;;3.30;;
31786;SDS011;18356;52.380;9.820;2023-03-01T16:23:14;8.20;;;3.90;;
31786;SDS011;18356;52.380;9.820;2023-03-01T16:25:40;9.80;;;3.67;;
31786;SDS011;18356;52.380;9.820;2023-03-01T16:28:06;6.73;;;3.00;;
31786;SDS011;18356;52.380;9.820;2023-03-01T16:30:37;7.77;;;3.40;;
31786;SDS011;18356;52.380;9.820;2023-03-01T16:33:04;10.90;;;3.27;;